sensor_id;sensor_type;location;lat;lon;timestamp;pressure;altitude;pressure_sealevel;temperature;humidity
38939;BME280;24211;49.980;19.776;2023-04-30T00:01:31;99164.56;;;13.96;100.00
38939;BME280;24211;49.980;19.776;2023-04-30T00:03:58;99159.38;;;13.90;100.00
38939;BME280;24211;49.980;19.776;2023-04-30T00:06:25;99169.31;;;13.89;100.00
38939;BME280;24211;49.980;19.776;2023-04-30T00:08:54;99160.22;;;13.90;100.00
38939;BME280;24211;49.980;19.776;2023-04-30T00:11:22;99169.63;;;13.93;100.00
38939;BME280;24211;49.980;19.776;2023-04-30T00:13:50;99165.59;;;13.90;100.00
38939;BME280;24211;49.980;19.776;2023-04-30T00:16:17;99164.75;;;13.90;100.00
38939;BME280;24211;49.980;19.776;2023-04-30T00:18:45;99155.31;;;13.87;100.00
38939;BME280;24211;49.980;19.776;2023-04-30T00:21:12;99158.56;;;13.89;100.00
38939;BME280;24211;49.980;19.776;2023-04-30T00:23:39;99158.56;;;13.89;100.00
38939;BME280;24211;49.980;19.776;2023-04-30T00:26:07;99156.97;;;13.88;100.00
38939;BME280;24211;49.980;19.776;2023-04-30T00:28:35;99162.34;;;13.88;100.00
38939;BME280;24211;49.980;19.776;2023-04-30T00:31:03;99166.06;;;13.87;100.00
38939;BME280;24211;49.980;19.776;2023-04-30T00:33:33;99170.41;;;13.88;100.00
38939;BME280;24211;49.980;19.776;2023-04-30T00:36:01;99173.56;;;13.85;100.00
38939;BME280;24211;49.980;19.776;2023-04-30T00:38:29;99164.38;;;13.81;100.00
38939;BME280;24211;49.980;19.776;2023-04-30T00:40:57;99172.63;;;13.74;100.00
38939;BME280;24211;49.980;19.776;2023-04-30T00:43:24;99168.97;;;13.64;100.00
38939;BME280;24211;49.980;19.776;2023-04-30T00:45:51;99180.09;;;13.51;100.00
38939;BME280;24211;49.980;19.776;2023-04-30T00:48:20;99176.75;;;13.44;100.00
38939;BME280;24211;49.980;19.776;2023-04-30T00:50:47;99187.09;;;13.35;100.00
38939;BME280;24211;49.980;19.776;2023-04-30T00:53:16;99177.25;;;13.41;100.00
38939;BME280;24211;49.980;19.776;2023-04-30T00:55:43;99184.00;;;13.43;100.00
38939;BME280;24211;49.980;19.776;2023-04-30T00:58:11;99176.44;;;13.40;100.00
38939;BME280;24211;49.980;19.776;2023-04-30T01:00:38;99184.22;;;13.42;100.00
38939;BME280;24211;49.980;19.776;2023-04-30T01:03:09;99185.03;;;13.42;100.00
38939;BME280;24211;49.980;19.776;2023-04-30T01:05:37;99181.47;;;13.37;100.00
38939;BME280;24211;49.980;19.776;2023-04-30T01:08:04;99179.69;;;13.26;100.00
38939;BME280;24211;49.980;19.776;2023-04-30T01:10:50;99192.28;;;13.25;100.00
38939;BME280;24211;49.980;19.776;2023-04-30T01:13:28;99183.19;;;13.26;100.00
38939;BME280;24211;49.980;19.776;2023-04-30T01:16:09;99183.19;;;13.26;100.00
38939;BME280;24211;49.980;19.776;2023-04-30T01:18:51;99179.53;;;13.32;100.00
38939;BME280;24211;49.980;19.776;2023-04-30T01:21:22;99180.34;;;13.33;100.00
38939;BME280;24211;49.980;19.776;2023-04-30T01:27:53;99183.13;;;13.21;100.00
38939;BME280;24211;49.980;19.776;2023-04-30T01:30:30;99186.84;;;13.20;100.00
38939;BME280;24211;49.980;19.776;2023-04-30T01:32:57;99190.59;;;13.19;100.00
38939;BME280;24211;49.980;19.776;2023-04-30T01:35:58;99192.38;;;13.14;100.00
38939;BME280;24211;49.980;19.776;2023-04-30T01:42:06;99195.25;;;13.07;100.00
38939;BME280;24211;49.980;19.776;2023-04-30T01:47:20;99203.41;;;13.00;100.00
38939;BME280;24211;49.980;19.776;2023-04-30T01:52:41;99201.94;;;12.93;100.00
38939;BME280;24211;49.980;19.776;2023-04-30T01:55:42;99201.09;;;12.92;100.00
38939;BME280;24211;49.980;19.776;2023-04-30T01:58:12;99200.88;;;12.94;100.00
38939;BME280;24211;49.980;19.776;2023-04-30T02:00:41;99204.28;;;12.89;100.00
38939;BME280;24211;49.980;19.776;2023-04-30T02:03:09;99204.22;;;12.84;100.00
38939;BME280;24211;49.980;19.776;2023-04-30T02:05:36;99210.22;;;12.75;100.00
38939;BME280;24211;49.980;19.776;2023-04-30T02:08:04;99203.88;;;12.81;100.00
38939;BME280;24211;49.980;19.776;2023-04-30T02:10:33;99213.78;;;12.80;100.00
38939;BME280;24211;49.980;19.776;2023-04-30T02:13:00;99209.38;;;12.74;100.00
38939;BME280;24211;49.980;19.776;2023-04-30T02:15:28;99208.91;;;12.77;100.00
38939;BME280;24211;49.980;19.776;2023-04-30T02:17:55;99209.22;;;12.81;100.00
38939;BME280;24211;49.980;19.776;2023-04-30T02:20:23;99212.16;;;12.79;100.00
38939;BME280;24211;49.980;19.776;2023-04-30T02:22:51;99210.91;;;12.70;100.00
38939;BME280;24211;49.980;19.776;2023-04-30T02:25:19;99211.97;;;12.69;100.00
38939;BME280;24211;49.980;19.776;2023-04-30T02:27:46;99209.59;;;12.73;100.00
38939;BME280;24211;49.980;19.776;2023-04-30T02:30:16;99215.22;;;12.71;100.00
38939;BME280;24211;49.980;19.776;2023-04-30T02:32:46;99218.28;;;12.63;100.00
38939;BME280;24211;49.980;19.776;2023-04-30T02:35:14;99223.06;;;12.61;100.00
38939;BME280;24211;49.980;19.776;2023-04-30T02:37:41;99224.16;;;12.60;100.00
38939;BME280;24211;49.980;19.776;2023-04-30T02:40:09;99225.28;;;12.64;100.00
38939;BME280;24211;49.980;19.776;2023-04-30T02:42:37;99231.78;;;12.68;100.00
38939;BME280;24211;49.980;19.776;2023-04-30T02:45:06;99230.66;;;12.64;100.00
38939;BME280;24211;49.980;19.776;2023-04-30T02:47:33;99232.28;;;12.65;100.00
38939;BME280;24211;49.980;19.776;2023-04-30T02:50:03;99234.06;;;12.60;100.00
38939;BME280;24211;49.980;19.776;2023-04-30T02:52:31;99231.13;;;12.61;100.00
38939;BME280;24211;49.980;19.776;2023-04-30T02:54:58;99242.31;;;12.58;100.00
38939;BME280;24211;49.980;19.776;2023-04-30T02:57:25;99240.72;;;12.57;100.00
38939;BME280;24211;49.980;19.776;2023-04-30T02:59:53;99243.59;;;12.56;100.00
38939;BME280;24211;49.980;19.776;2023-04-30T03:02:21;99246.53;;;12.54;100.00
38939;BME280;24211;49.980;19.776;2023-04-30T03:04:50;99253.91;;;12.47;100.00
38939;BME280;24211;49.980;19.776;2023-04-30T03:07:17;99253.91;;;12.47;100.00
38939;BME280;24211;49.980;19.776;2023-04-30T03:09:45;99244.22;;;12.46;100.00
38939;BME280;24211;49.980;19.776;2023-04-30T03:12:12;99254.94;;;12.46;100.00
38939;BME280;24211;49.980;19.776;2023-04-30T03:14:40;99260.81;;;12.43;100.00
38939;BME280;24211;49.980;19.776;2023-04-30T03:17:08;99251.59;;;12.39;100.00
38939;BME280;24211;49.980;19.776;2023-04-30T03:19:35;99258.03;;;12.38;100.00
38939;BME280;24211;49.980;19.776;2023-04-30T03:22:03;99255.91;;;12.40;100.00
38939;BME280;24211;49.980;19.776;2023-04-30T03:24:30;99253.34;;;12.45;100.00
38939;BME280;24211;49.980;19.776;2023-04-30T03:26:58;99260.22;;;12.41;100.00
38939;BME280;24211;49.980;19.776;2023-04-30T03:29:26;99266.63;;;12.40;100.00
38939;BME280;24211;49.980;19.776;2023-04-30T03:31:54;99270.03;;;12.35;100.00
38939;BME280;24211;49.980;19.776;2023-04-30T03:34:22;99265.47;;;12.36;100.00
38939;BME280;24211;49.980;19.776;2023-04-30T03:36:49;99265.56;;;12.41;100.00
38939;BME280;24211;49.980;19.776;2023-04-30T03:39:17;99266.63;;;12.40;100.00
38939;BME280;24211;49.980;19.776;2023-04-30T03:41:44;99267.09;;;12.37;100.00
38939;BME280;24211;49.980;19.776;2023-04-30T03:44:11;99275.72;;;12.39;100.00
38939;BME280;24211;49.980;19.776;2023-04-30T03:46:42;99276.19;;;12.36;100.00
38939;BME280;24211;49.980;19.776;2023-04-30T03:49:10;99288.44;;;12.32;100.00
38939;BME280;24211;49.980;19.776;2023-04-30T03:51:38;99285.28;;;12.35;100.00
38939;BME280;24211;49.980;19.776;2023-04-30T03:54:07;99291.13;;;12.32;100.00
38939;BME280;24211;49.980;19.776;2023-04-30T03:56:36;99293.22;;;12.30;100.00
38939;BME280;24211;49.980;19.776;2023-04-30T03:59:04;99299.72;;;12.34;100.00
38939;BME280;24211;49.980;19.776;2023-04-30T04:01:32;99297.63;;;12.36;100.00
38939;BME280;24211;49.980;19.776;2023-04-30T04:04:00;99302.97;;;12.36;100.00
38939;BME280;24211;49.980;19.776;2023-04-30T04:06:28;99304.63;;;12.37;100.00
38939;BME280;24211;49.980;19.776;2023-04-30T04:08:56;99301.38;;;12.35;100.00
38939;BME280;24211;49.980;19.776;2023-04-30T04:11:23;99307.56;;;12.35;100.00
38939;BME280;24211;49.980;19.776;2023-04-30T04:13:51;99307.19;;;12.32;100.00
38939;BME280;24211;49.980;19.776;2023-04-30T04:16:19;99310.13;;;12.30;100.00
38939;BME280;24211;49.980;19.776;2023-04-30T04:18:51;99315.69;;;12.29;100.00
38939;BME280;24211;49.980;19.776;2023-04-30T04:21:19;99319.66;;;12.26;100.00
38939;BME280;24211;49.980;19.776;2023-04-30T04:23:46;99324.22;;;12.26;100.00
38939;BME280;24211;49.980;19.776;2023-04-30T04:26:13;99326.31;;;12.24;100.00
38939;BME280;24211;49.980;19.776;2023-04-30T04:28:42;99329.22;;;12.22;100.00
38939;BME280;24211;49.980;19.776;2023-04-30T04:31:10;99328.53;;;12.27;100.00
38939;BME280;24211;49.980;19.776;2023-04-30T04:33:38;99334.22;;;12.19;100.00
38939;BME280;24211;49.980;19.776;2023-04-30T04:36:05;99333.53;;;12.12;100.00
38939;BME280;24211;49.980;19.776;2023-04-30T04:38:32;99340.31;;;12.03;100.00
38939;BME280;24211;49.980;19.776;2023-04-30T04:41:01;99351.47;;;12.00;100.00
38939;BME280;24211;49.980;19.776;2023-04-30T04:43:29;99355.09;;;11.94;100.00
38939;BME280;24211;49.980;19.776;2023-04-30T04:45:56;99350.09;;;11.86;100.00
38939;BME280;24211;49.980;19.776;2023-04-30T04:48:23;99361.81;;;11.85;100.00
38939;BME280;24211;49.980;19.776;2023-04-30T04:50:51;99362.88;;;11.84;100.00
38939;BME280;24211;49.980;19.776;2023-04-30T04:53:19;99371.88;;;11.89;100.00
38939;BME280;24211;49.980;19.776;2023-04-30T04:55:47;99376.84;;;11.86;100.00
38939;BME280;24211;49.980;19.776;2023-04-30T04:58:14;99375.09;;;11.68;100.00
38939;BME280;24211;49.980;19.776;2023-04-30T05:00:41;99387.16;;;11.59;100.00
38939;BME280;24211;49.980;19.776;2023-04-30T05:03:10;99395.22;;;11.70;100.00
38939;BME280;24211;49.980;19.776;2023-04-30T05:05:37;99399.38;;;11.66;100.00
38939;BME280;24211;49.980;19.776;2023-04-30T05:08:04;99407.09;;;11.74;100.00
38939;BME280;24211;49.980;19.776;2023-04-30T05:10:32;99417.53;;;11.64;100.00
38939;BME280;24211;49.980;19.776;2023-04-30T05:13:00;99412.63;;;11.61;100.00
38939;BME280;24211;49.980;19.776;2023-04-30T05:15:28;99416.78;;;11.57;100.00
38939;BME280;24211;49.980;19.776;2023-04-30T05:17:55;99421.13;;;11.58;100.00
38939;BME280;24211;49.980;19.776;2023-04-30T05:20:23;99427.06;;;11.60;100.00
38939;BME280;24211;49.980;19.776;2023-04-30T05:22:50;99432.06;;;11.57;100.00
38939;BME280;24211;49.980;19.776;2023-04-30T05:25:17;99438.56;;;11.49;100.00
38939;BME280;24211;49.980;19.776;2023-04-30T05:27:45;99448.69;;;11.47;100.00
38939;BME280;24211;49.980;19.776;2023-04-30T05:30:12;99448.91;;;11.57;100.00
38939;BME280;24211;49.980;19.776;2023-04-30T05:32:41;99449.66;;;11.64;100.00
38939;BME280;24211;49.980;19.776;2023-04-30T05:35:09;99454.25;;;11.57;100.00
38939;BME280;24211;49.980;19.776;2023-04-30T05:37:37;99458.47;;;11.53;100.00
38939;BME280;24211;49.980;19.776;2023-04-30T05:40:05;99461.81;;;11.49;100.00
38939;BME280;24211;49.980;19.776;2023-04-30T05:42:32;99470.53;;;11.44;100.00
38939;BME280;24211;49.980;19.776;2023-04-30T05:45:01;99472.53;;;11.49;100.00
38939;BME280;24211;49.980;19.776;2023-04-30T05:47:28;99480.16;;;11.45;100.00
38939;BME280;24211;49.980;19.776;2023-04-30T05:49:56;99498.56;;;11.42;100.00
38939;BME280;24211;49.980;19.776;2023-04-30T05:52:23;99498.56;;;11.42;100.00
38939;BME280;24211;49.980;19.776;2023-04-30T05:54:51;99504.34;;;11.39;100.00
38939;BME280;24211;49.980;19.776;2023-04-30T05:57:18;99505.84;;;11.35;100.00
38939;BME280;24211;49.980;19.776;2023-04-30T05:59:46;99515.16;;;11.32;100.00
38939;BME280;24211;49.980;19.776;2023-04-30T06:02:13;99521.53;;;11.31;100.00
38939;BME280;24211;49.980;19.776;2023-04-30T06:04:41;99519.47;;;11.15;100.00
38939;BME280;24211;49.980;19.776;2023-04-30T06:07:09;99528.06;;;11.17;100.00
38939;BME280;24211;49.980;19.776;2023-04-30T06:09:36;99527.16;;;11.23;100.00
38939;BME280;24211;49.980;19.776;2023-04-30T06:12:04;99535.66;;;11.02;100.00
38939;BME280;24211;49.980;19.776;2023-04-30T06:14:31;99536.81;;;11.06;100.00
38939;BME280;24211;49.980;19.776;2023-04-30T06:16:59;99536.69;;;11.19;100.00
38939;BME280;24211;49.980;19.776;2023-04-30T06:19:29;99542.03;;;11.19;100.00
38939;BME280;24211;49.980;19.776;2023-04-30T06:21:56;99544.13;;;11.17;100.00
38939;BME280;24211;49.980;19.776;2023-04-30T06:24:23;99548.41;;;11.18;100.00
38939;BME280;24211;49.980;19.776;2023-04-30T06:26:53;99552.59;;;11.14;100.00
38939;BME280;24211;49.980;19.776;2023-04-30T06:29:21;99554.81;;;11.17;100.00
38939;BME280;24211;49.980;19.776;2023-04-30T06:31:50;99554.69;;;11.12;100.00
38939;BME280;24211;49.980;19.776;2023-04-30T06:34:18;99553.19;;;11.16;100.00
38939;BME280;24211;49.980;19.776;2023-04-30T06:36:46;99562.84;;;11.17;100.00
38939;BME280;24211;49.980;19.776;2023-04-30T06:39:15;99559.88;;;11.07;100.00
38939;BME280;24211;49.980;19.776;2023-04-30T06:41:43;99564.03;;;11.03;100.00
38939;BME280;24211;49.980;19.776;2023-04-30T06:44:10;99568.75;;;11.01;100.00
38939;BME280;24211;49.980;19.776;2023-04-30T06:46:37;99580.53;;;11.00;100.00
38939;BME280;24211;49.980;19.776;2023-04-30T06:49:05;99573.97;;;10.96;100.00
38939;BME280;24211;49.980;19.776;2023-04-30T06:51:32;99579.94;;;10.98;100.00
38939;BME280;24211;49.980;19.776;2023-04-30T06:53:59;99578.50;;;10.95;100.00
38939;BME280;24211;49.980;19.776;2023-04-30T06:56:27;99586.31;;;10.97;100.00
38939;BME280;24211;49.980;19.776;2023-04-30T06:58:54;99587.94;;;10.98;100.00
38939;BME280;24211;49.980;19.776;2023-04-30T07:01:22;99594.47;;;11.02;100.00
38939;BME280;24211;49.980;19.776;2023-04-30T07:03:50;99598.41;;;10.99;100.00
38939;BME280;24211;49.980;19.776;2023-04-30T07:06:19;99598.81;;;11.03;100.00
38939;BME280;24211;49.980;19.776;2023-04-30T07:08:46;99597.75;;;11.04;100.00
38939;BME280;24211;49.980;19.776;2023-04-30T07:11:14;99604.50;;;11.06;100.00
38939;BME280;24211;49.980;19.776;2023-04-30T07:13:42;99606.31;;;11.12;100.00
38939;BME280;24211;49.980;19.776;2023-04-30T07:16:10;99598.44;;;11.18;100.00
38939;BME280;24211;49.980;19.776;2023-04-30T07:18:37;99606.69;;;11.16;100.00
38939;BME280;24211;49.980;19.776;2023-04-30T07:21:05;99599.25;;;11.18;100.00
38939;BME280;24211;49.980;19.776;2023-04-30T07:23:34;99606.00;;;11.21;100.00
38939;BME280;24211;49.980;19.776;2023-04-30T07:26:01;99609.06;;;11.24;100.00
38939;BME280;24211;49.980;19.776;2023-04-30T07:28:28;99606.56;;;11.29;100.00
38939;BME280;24211;49.980;19.776;2023-04-30T07:30:56;99611.47;;;11.32;100.00
38939;BME280;24211;49.980;19.776;2023-04-30T07:33:23;99611.00;;;11.35;100.00
38939;BME280;24211;49.980;19.776;2023-04-30T07:35:50;99615.47;;;11.41;100.00
38939;BME280;24211;49.980;19.776;2023-04-30T07:38:18;99614.13;;;11.50;100.00
38939;BME280;24211;49.980;19.776;2023-04-30T07:40:45;99615.94;;;11.56;100.00
38939;BME280;24211;49.980;19.776;2023-04-30T07:43:12;99613.13;;;11.69;100.00
38939;BME280;24211;49.980;19.776;2023-04-30T07:45:40;99606.31;;;11.85;100.00
38939;BME280;24211;49.980;19.776;2023-04-30T07:48:08;99616.94;;;11.92;100.00
38939;BME280;24211;49.980;19.776;2023-04-30T07:50:36;99607.00;;;11.99;100.00
38939;BME280;24211;49.980;19.776;2023-04-30T07:53:03;99605.63;;;12.08;100.00
38939;BME280;24211;49.980;19.776;2023-04-30T07:55:33;99603.63;;;12.33;100.00
38939;BME280;24211;49.980;19.776;2023-04-30T07:58:00;99612.75;;;12.55;100.00
38939;BME280;24211;49.980;19.776;2023-04-30T08:00:30;99618.25;;;12.72;100.00
38939;BME280;24211;49.980;19.776;2023-04-30T08:03:00;99605.81;;;13.00;100.00
38939;BME280;24211;49.980;19.776;2023-04-30T08:05:28;99607.47;;;13.25;100.00
38939;BME280;24211;49.980;19.776;2023-04-30T08:07:55;99612.13;;;13.41;100.00
38939;BME280;24211;49.980;19.776;2023-04-30T08:10:22;99610.66;;;13.73;100.00
38939;BME280;24211;49.980;19.776;2023-04-30T08:12:50;99604.72;;;13.99;100.00
38939;BME280;24211;49.980;19.776;2023-04-30T08:15:17;99608.84;;;14.18;100.00
38939;BME280;24211;49.980;19.776;2023-04-30T08:17:51;99608.13;;;14.34;100.00
38939;BME280;24211;49.980;19.776;2023-04-30T08:20:19;99621.44;;;14.29;100.00
38939;BME280;24211;49.980;19.776;2023-04-30T08:22:46;99617.22;;;14.33;100.00
38939;BME280;24211;49.980;19.776;2023-04-30T08:25:14;99618.06;;;14.51;100.00
38939;BME280;24211;49.980;19.776;2023-04-30T08:27:41;99606.53;;;14.67;100.00
38939;BME280;24211;49.980;19.776;2023-04-30T08:30:09;99613.34;;;14.74;100.00
38939;BME280;24211;49.980;19.776;2023-04-30T08:32:37;99610.34;;;14.87;100.00
38939;BME280;24211;49.980;19.776;2023-04-30T08:35:05;99601.28;;;15.10;100.00
38939;BME280;24211;49.980;19.776;2023-04-30T08:37:33;99609.88;;;15.29;100.00
38939;BME280;24211;49.980;19.776;2023-04-30T08:40:02;99612.91;;;15.49;100.00
38939;BME280;24211;49.980;19.776;2023-04-30T08:42:35;99598.50;;;15.82;100.00
38939;BME280;24211;49.980;19.776;2023-04-30T08:45:03;99604.88;;;15.76;100.00
38939;BME280;24211;49.980;19.776;2023-04-30T08:47:32;99605.56;;;15.66;100.00
38939;BME280;24211;49.980;19.776;2023-04-30T08:49:59;99596.97;;;15.91;100.00
38939;BME280;24211;49.980;19.776;2023-04-30T08:52:29;99604.84;;;16.19;100.00
38939;BME280;24211;49.980;19.776;2023-04-30T08:55:00;99602.94;;;16.41;100.00
38939;BME280;24211;49.980;19.776;2023-04-30T08:57:27;99598.75;;;16.55;100.00
38939;BME280;24211;49.980;19.776;2023-04-30T08:59:55;99597.25;;;16.69;100.00
38939;BME280;24211;49.980;19.776;2023-04-30T09:02:23;99596.88;;;16.87;100.00
38939;BME280;24211;49.980;19.776;2023-04-30T09:04:51;99606.66;;;16.98;100.00
38939;BME280;24211;49.980;19.776;2023-04-30T09:07:21;99600.34;;;17.20;100.00
38939;BME280;24211;49.980;19.776;2023-04-30T09:09:54;99593.94;;;17.36;100.00
38939;BME280;24211;49.980;19.776;2023-04-30T09:12:22;99605.84;;;17.40;100.00
38939;BME280;24211;49.980;19.776;2023-04-30T09:15:05;99594.69;;;17.26;100.00
38939;BME280;24211;49.980;19.776;2023-04-30T09:17:34;99606.59;;;17.30;100.00
38939;BME280;24211;49.980;19.776;2023-04-30T09:20:12;99611.72;;;17.69;100.00
38939;BME280;24211;49.980;19.776;2023-04-30T09:22:41;99614.47;;;17.79;100.00
38939;BME280;24211;49.980;19.776;2023-04-30T09:25:09;99604.44;;;17.79;95.22
38939;BME280;24211;49.980;19.776;2023-04-30T09:27:37;99600.25;;;18.18;89.25
38939;BME280;24211;49.980;19.776;2023-04-30T09:30:05;99605.66;;;18.23;87.84
38939;BME280;24211;49.980;19.776;2023-04-30T09:32:33;99597.53;;;18.18;84.89
38939;BME280;24211;49.980;19.776;2023-04-30T09:35:01;99600.78;;;18.05;82.60
38939;BME280;24211;49.980;19.776;2023-04-30T09:37:38;99607.72;;;17.81;79.21
38939;BME280;24211;49.980;19.776;2023-04-30T09:40:06;99607.16;;;17.79;79.06
38939;BME280;24211;49.980;19.776;2023-04-30T09:42:37;99608.31;;;17.98;81.13
38939;BME280;24211;49.980;19.776;2023-04-30T09:45:05;99595.63;;;18.14;80.79
38939;BME280;24211;49.980;19.776;2023-04-30T09:47:32;99600.81;;;18.30;77.50
38939;BME280;24211;49.980;19.776;2023-04-30T09:49:59;99600.75;;;18.00;77.84
38939;BME280;24211;49.980;19.776;2023-04-30T09:52:27;99593.22;;;18.22;79.52
38939;BME280;24211;49.980;19.776;2023-04-30T09:54:54;99593.28;;;18.53;73.13
38939;BME280;24211;49.980;19.776;2023-04-30T09:57:23;99583.03;;;18.60;73.09
38939;BME280;24211;49.980;19.776;2023-04-30T09:59:51;99579.22;;;18.66;77.09
38939;BME280;24211;49.980;19.776;2023-04-30T10:02:21;99578.69;;;19.04;76.02
38939;BME280;24211;49.980;19.776;2023-04-30T10:04:56;99576.44;;;19.36;68.45
38939;BME280;24211;49.980;19.776;2023-04-30T10:07:31;99575.34;;;19.52;66.00
38939;BME280;24211;49.980;19.776;2023-04-30T10:10:07;99565.50;;;19.67;61.70
38939;BME280;24211;49.980;19.776;2023-04-30T10:12:50;99573.19;;;19.34;64.05
38939;BME280;24211;49.980;19.776;2023-04-30T10:15:27;99571.31;;;19.40;65.87
38939;BME280;24211;49.980;19.776;2023-04-30T10:18:01;99571.56;;;19.43;66.96
38939;BME280;24211;49.980;19.776;2023-04-30T10:20:34;99571.97;;;19.76;61.00
38939;BME280;24211;49.980;19.776;2023-04-30T10:23:03;99553.59;;;19.68;61.86
38939;BME280;24211;49.980;19.776;2023-04-30T10:25:32;99564.47;;;19.52;65.45
38939;BME280;24211;49.980;19.776;2023-04-30T10:28:01;99560.63;;;19.69;61.74
38939;BME280;24211;49.980;19.776;2023-04-30T10:30:34;99564.97;;;19.70;63.88
38939;BME280;24211;49.980;19.776;2023-04-30T10:33:17;99567.09;;;19.78;59.46
38939;BME280;24211;49.980;19.776;2023-04-30T10:35:58;99567.16;;;19.68;60.11
38939;BME280;24211;49.980;19.776;2023-04-30T10:38:28;99560.09;;;19.67;60.30
38939;BME280;24211;49.980;19.776;2023-04-30T10:41:00;99561.44;;;20.18;55.28
38939;BME280;24211;49.980;19.776;2023-04-30T10:43:31;99552.91;;;20.40;52.05
38939;BME280;24211;49.980;19.776;2023-04-30T10:45:59;99551.56;;;20.37;50.25
38939;BME280;24211;49.980;19.776;2023-04-30T10:48:27;99556.97;;;20.37;51.10
38939;BME280;24211;49.980;19.776;2023-04-30T10:50:58;99550.09;;;20.11;53.24
38939;BME280;24211;49.980;19.776;2023-04-30T10:53:35;99542.84;;;19.96;56.01
38939;BME280;24211;49.980;19.776;2023-04-30T10:56:04;99536.94;;;20.33;55.42
38939;BME280;24211;49.980;19.776;2023-04-30T10:58:37;99543.38;;;20.42;52.46
38939;BME280;24211;49.980;19.776;2023-04-30T11:01:16;99546.16;;;20.32;54.16
38939;BME280;24211;49.980;19.776;2023-04-30T11:04:08;99541.78;;;20.41;55.32
38939;BME280;24211;49.980;19.776;2023-04-30T11:07:00;99540.94;;;20.74;50.92
38939;BME280;24211;49.980;19.776;2023-04-30T11:09:43;99545.19;;;20.85;50.05
38939;BME280;24211;49.980;19.776;2023-04-30T11:12:19;99538.75;;;20.76;51.12
38939;BME280;24211;49.980;19.776;2023-04-30T11:15:12;99543.47;;;20.95;51.08
38939;BME280;24211;49.980;19.776;2023-04-30T11:17:42;99545.41;;;21.23;49.65
38939;BME280;24211;49.980;19.776;2023-04-30T11:20:19;99544.75;;;21.02;50.11
38939;BME280;24211;49.980;19.776;2023-04-30T11:23:11;99543.19;;;21.25;47.41
38939;BME280;24211;49.980;19.776;2023-04-30T11:25:48;99543.63;;;21.08;48.26
38939;BME280;24211;49.980;19.776;2023-04-30T11:28:20;99535.53;;;21.03;48.91
38939;BME280;24211;49.980;19.776;2023-04-30T11:30:57;99535.44;;;21.37;49.47
38939;BME280;24211;49.980;19.776;2023-04-30T11:33:29;99526.81;;;21.72;46.80
38939;BME280;24211;49.980;19.776;2023-04-30T11:35:59;99527.47;;;22.06;45.99
38939;BME280;24211;49.980;19.776;2023-04-30T11:38:35;99540.66;;;21.57;46.74
38939;BME280;24211;49.980;19.776;2023-04-30T11:41:07;99540.34;;;21.77;47.07
38939;BME280;24211;49.980;19.776;2023-04-30T11:43:37;99541.31;;;21.68;48.09
38939;BME280;24211;49.980;19.776;2023-04-30T11:46:11;99539.09;;;22.31;44.61
38939;BME280;24211;49.980;19.776;2023-04-30T11:48:42;99547.34;;;21.88;45.44
38939;BME280;24211;49.980;19.776;2023-04-30T11:51:21;99534.25;;;21.90;45.74
38939;BME280;24211;49.980;19.776;2023-04-30T11:53:52;99528.22;;;21.93;44.06
38939;BME280;24211;49.980;19.776;2023-04-30T11:56:20;99535.53;;;22.49;43.12
38939;BME280;24211;49.980;19.776;2023-04-30T11:58:51;99539.03;;;22.36;43.53
38939;BME280;24211;49.980;19.776;2023-04-30T12:01:19;99539.16;;;22.07;44.67
38939;BME280;24211;49.980;19.776;2023-04-30T12:03:50;99533.94;;;22.10;45.15
38939;BME280;24211;49.980;19.776;2023-04-30T12:06:25;99529.25;;;22.99;43.53
38939;BME280;24211;49.980;19.776;2023-04-30T12:08:56;99529.09;;;23.50;41.69
38939;BME280;24211;49.980;19.776;2023-04-30T12:11:26;99525.97;;;24.06;39.70
38939;BME280;24211;49.980;19.776;2023-04-30T12:14:05;99525.84;;;23.62;39.59
38939;BME280;24211;49.980;19.776;2023-04-30T12:16:44;99527.66;;;23.66;39.92
38939;BME280;24211;49.980;19.776;2023-04-30T12:19:12;99527.22;;;23.86;39.45
38939;BME280;24211;49.980;19.776;2023-04-30T12:21:42;99521.03;;;24.30;38.37
38939;BME280;24211;49.980;19.776;2023-04-30T12:24:13;99519.06;;;24.66;37.46
38939;BME280;24211;49.980;19.776;2023-04-30T12:26:41;99516.34;;;24.89;35.39
38939;BME280;24211;49.980;19.776;2023-04-30T12:29:17;99506.66;;;24.60;37.51
38939;BME280;24211;49.980;19.776;2023-04-30T12:31:48;99514.00;;;24.51;38.38
38939;BME280;24211;49.980;19.776;2023-04-30T12:34:17;99511.84;;;25.32;36.93
38939;BME280;24211;49.980;19.776;2023-04-30T12:36:44;99509.16;;;25.97;33.77
38939;BME280;24211;49.980;19.776;2023-04-30T12:39:16;99512.13;;;25.61;35.29
38939;BME280;24211;49.980;19.776;2023-04-30T12:41:46;99505.41;;;25.67;34.41
38939;BME280;24211;49.980;19.776;2023-04-30T12:44:23;99506.56;;;25.36;35.23
38939;BME280;24211;49.980;19.776;2023-04-30T12:46:56;99503.88;;;25.05;36.24
38939;BME280;24211;49.980;19.776;2023-04-30T12:49:32;99496.22;;;25.24;36.53
38939;BME280;24211;49.980;19.776;2023-04-30T12:52:02;99496.09;;;26.20;34.71
38939;BME280;24211;49.980;19.776;2023-04-30T12:54:30;99492.69;;;25.80;35.20
38939;BME280;24211;49.980;19.776;2023-04-30T12:57:05;99493.81;;;25.87;34.97
38939;BME280;24211;49.980;19.776;2023-04-30T12:59:57;99481.53;;;26.62;33.12
38939;BME280;24211;49.980;19.776;2023-04-30T13:02:27;99482.22;;;26.42;33.32
38939;BME280;24211;49.980;19.776;2023-04-30T13:04:56;99483.47;;;26.61;33.11
38939;BME280;24211;49.980;19.776;2023-04-30T13:07:23;99480.81;;;26.99;31.90
38939;BME280;24211;49.980;19.776;2023-04-30T13:09:51;99473.13;;;26.84;32.15